sensor_id;sensor_type;location;lat;lon;timestamp;P1;durP1;ratioP1;P2;durP2;ratioP2
11100;SDS011;5604;50.722;7.078;2023-03-04T00:00:35;94.30;;;48.50;;
11100;SDS011;5604;50.722;7.078;2023-03-04T00:03:03;87.43;;;46.47;;
11100;SDS011;5604;50.722;7.078;2023-03-04T00:05:32;97.80;;;48.47;;
11100;SDS011;5604;50.722;7.078;2023-03-04T00:08:00;99.30;;;47.63;;
11100;SDS011;5604;50.722;7.078;2023-03-04T00:10:28;91.73;;;46.63;;
11100;SDS011;5604;50.722;7.078;2023-03-04T00:12:58;85.23;;;47.80;;
11100;SDS011;5604;50.722;7.078;2023-03-04T00:15:26;95.37;;;48.17;;
11100;SDS011;5604;50.722;7.078;2023-03-04T00:17:54;88.23;;;46.57;;
11100;SDS011;5604;50.722;7.078;2023-03-04T00:20:22;96.30;;;46.83;;
11100;SDS011;5604;50.722;7.078;2023-03-04T00:22:50;93.03;;;47.37;;
11100;SDS011;5604;50.722;7.078;2023-03-04T00:25:19;92.73;;;47.47;;
11100;SDS011;5604;50.722;7.078;2023-03-04T00:27:47;95.80;;;48.80;;
11100;SDS011;5604;50.722;7.078;2023-03-04T00:30:19;94.20;;;47.80;;
11100;SDS011;5604;50.722;7.078;2023-03-04T00:32:47;92.63;;;45.83;;
11100;SDS011;5604;50.722;7.078;2023-03-04T00:35:15;94.07;;;47.97;;
11100;SDS011;5604;50.722;7.078;2023-03-04T00:37:44;90.90;;;47.37;;
11100;SDS011;5604;50.722;7.078;2023-03-04T00:40:12;89.73;;;45.50;;
11100;SDS011;5604;50.722;7.078;2023-03-04T00:42:40;92.70;;;45.83;;
11100;SDS011;5604;50.722;7.078;2023-03-04T00:45:09;83.33;;;43.63;;
11100;SDS011;5604;50.722;7.078;2023-03-04T00:47:38;77.33;;;43.30;;
11100;SDS011;5604;50.722;7.078;2023-03-04T00:50:07;85.90;;;44.20;;
11100;SDS011;5604;50.722;7.078;2023-03-04T00:52:37;83.83;;;44.43;;
11100;SDS011;5604;50.722;7.078;2023-03-04T00:55:05;89.07;;;44.00;;
11100;SDS011;5604;50.722;7.078;2023-03-04T00:57:34;85.10;;;43.97;;
11100;SDS011;5604;50.722;7.078;2023-03-04T01:00:03;77.37;;;43.20;;
11100;SDS011;5604;50.722;7.078;2023-03-04T01:02:33;82.03;;;41.40;;
11100;SDS011;5604;50.722;7.078;2023-03-04T01:05:03;81.97;;;42.27;;
11100;SDS011;5604;50.722;7.078;2023-03-04T01:07:32;78.77;;;42.30;;
11100;SDS011;5604;50.722;7.078;2023-03-04T01:10:00;75.80;;;41.70;;
11100;SDS011;5604;50.722;7.078;2023-03-04T01:12:28;76.93;;;40.47;;
11100;SDS011;5604;50.722;7.078;2023-03-04T01:14:58;79.13;;;39.63;;
11100;SDS011;5604;50.722;7.078;2023-03-04T01:17:26;77.93;;;40.03;;
11100;SDS011;5604;50.722;7.078;2023-03-04T01:19:54;71.73;;;37.63;;
11100;SDS011;5604;50.722;7.078;2023-03-04T01:22:23;73.87;;;39.67;;
11100;SDS011;5604;50.722;7.078;2023-03-04T01:24:52;69.93;;;37.20;;
11100;SDS011;5604;50.722;7.078;2023-03-04T01:27:20;68.77;;;38.60;;
11100;SDS011;5604;50.722;7.078;2023-03-04T01:29:49;67.07;;;37.63;;
11100;SDS011;5604;50.722;7.078;2023-03-04T01:32:17;68.00;;;36.17;;
11100;SDS011;5604;50.722;7.078;2023-03-04T01:34:47;67.23;;;35.57;;
11100;SDS011;5604;50.722;7.078;2023-03-04T01:37:15;65.57;;;35.83;;
11100;SDS011;5604;50.722;7.078;2023-03-04T01:39:46;62.17;;;34.27;;
11100;SDS011;5604;50.722;7.078;2023-03-04T01:42:16;65.50;;;34.27;;
11100;SDS011;5604;50.722;7.078;2023-03-04T01:44:48;59.70;;;33.37;;
11100;SDS011;5604;50.722;7.078;2023-03-04T01:47:18;62.13;;;34.77;;
11100;SDS011;5604;50.722;7.078;2023-03-04T01:49:46;64.27;;;34.30;;
11100;SDS011;5604;50.722;7.078;2023-03-04T01:52:18;59.13;;;32.20;;
11100;SDS011;5604;50.722;7.078;2023-03-04T01:54:47;61.43;;;32.30;;
11100;SDS011;5604;50.722;7.078;2023-03-04T01:57:16;57.13;;;30.97;;
11100;SDS011;5604;50.722;7.078;2023-03-04T01:59:45;56.93;;;30.70;;
11100;SDS011;5604;50.722;7.078;2023-03-04T02:02:14;57.87;;;30.67;;
11100;SDS011;5604;50.722;7.078;2023-03-04T02:04:42;56.07;;;31.67;;
11100;SDS011;5604;50.722;7.078;2023-03-04T02:07:10;55.53;;;30.90;;
11100;SDS011;5604;50.722;7.078;2023-03-04T02:09:38;56.27;;;30.90;;
11100;SDS011;5604;50.722;7.078;2023-03-04T02:12:08;58.03;;;31.23;;
11100;SDS011;5604;50.722;7.078;2023-03-04T02:14:37;55.93;;;29.47;;
11100;SDS011;5604;50.722;7.078;2023-03-04T02:17:08;52.90;;;28.60;;
11100;SDS011;5604;50.722;7.078;2023-03-04T02:19:39;50.97;;;28.97;;
11100;SDS011;5604;50.722;7.078;2023-03-04T02:22:12;50.93;;;27.87;;
11100;SDS011;5604;50.722;7.078;2023-03-04T02:24:42;53.63;;;26.83;;
11100;SDS011;5604;50.722;7.078;2023-03-04T02:27:14;49.30;;;26.40;;
11100;SDS011;5604;50.722;7.078;2023-03-04T02:29:48;49.70;;;26.37;;
11100;SDS011;5604;50.722;7.078;2023-03-04T02:32:16;45.10;;;25.70;;
11100;SDS011;5604;50.722;7.078;2023-03-04T02:34:45;45.07;;;25.50;;
11100;SDS011;5604;50.722;7.078;2023-03-04T02:37:19;45.33;;;25.40;;
11100;SDS011;5604;50.722;7.078;2023-03-04T02:39:51;47.07;;;25.73;;
11100;SDS011;5604;50.722;7.078;2023-03-04T02:42:21;41.90;;;24.63;;
11100;SDS011;5604;50.722;7.078;2023-03-04T02:44:59;40.60;;;23.77;;
11100;SDS011;5604;50.722;7.078;2023-03-04T02:47:27;44.30;;;25.10;;
11100;SDS011;5604;50.722;7.078;2023-03-04T02:49:56;46.17;;;25.70;;
11100;SDS011;5604;50.722;7.078;2023-03-04T02:52:24;44.33;;;23.70;;
11100;SDS011;5604;50.722;7.078;2023-03-04T02:54:52;41.80;;;23.77;;
11100;SDS011;5604;50.722;7.078;2023-03-04T02:57:22;37.93;;;22.63;;
11100;SDS011;5604;50.722;7.078;2023-03-04T02:59:53;43.47;;;23.37;;
11100;SDS011;5604;50.722;7.078;2023-03-04T03:02:23;38.43;;;22.30;;
11100;SDS011;5604;50.722;7.078;2023-03-04T03:04:51;32.90;;;19.97;;
11100;SDS011;5604;50.722;7.078;2023-03-04T03:07:20;36.53;;;20.47;;
11100;SDS011;5604;50.722;7.078;2023-03-04T03:09:48;38.03;;;20.43;;
11100;SDS011;5604;50.722;7.078;2023-03-04T03:12:17;34.67;;;19.27;;
11100;SDS011;5604;50.722;7.078;2023-03-04T03:14:46;33.70;;;18.87;;
11100;SDS011;5604;50.722;7.078;2023-03-04T03:17:17;33.73;;;19.23;;
11100;SDS011;5604;50.722;7.078;2023-03-04T03:19:45;31.83;;;18.17;;
11100;SDS011;5604;50.722;7.078;2023-03-04T03:22:17;31.43;;;17.97;;
11100;SDS011;5604;50.722;7.078;2023-03-04T03:24:46;32.30;;;18.63;;
11100;SDS011;5604;50.722;7.078;2023-03-04T03:27:14;34.23;;;18.00;;
11100;SDS011;5604;50.722;7.078;2023-03-04T03:29:45;29.03;;;17.40;;
11100;SDS011;5604;50.722;7.078;2023-03-04T03:32:14;32.23;;;17.87;;
11100;SDS011;5604;50.722;7.078;2023-03-04T03:34:42;28.13;;;16.70;;
11100;SDS011;5604;50.722;7.078;2023-03-04T03:37:13;34.10;;;18.20;;
11100;SDS011;5604;50.722;7.078;2023-03-04T03:39:41;39.30;;;17.97;;
11100;SDS011;5604;50.722;7.078;2023-03-04T03:42:14;31.67;;;18.37;;
11100;SDS011;5604;50.722;7.078;2023-03-04T03:44:47;28.17;;;16.60;;
11100;SDS011;5604;50.722;7.078;2023-03-04T03:47:20;30.77;;;16.20;;
11100;SDS011;5604;50.722;7.078;2023-03-04T03:49:48;27.77;;;17.13;;
11100;SDS011;5604;50.722;7.078;2023-03-04T03:52:16;26.80;;;16.50;;
11100;SDS011;5604;50.722;7.078;2023-03-04T03:54:44;30.27;;;16.23;;
11100;SDS011;5604;50.722;7.078;2023-03-04T03:57:12;28.67;;;16.03;;
11100;SDS011;5604;50.722;7.078;2023-03-04T03:59:40;31.70;;;16.60;;
11100;SDS011;5604;50.722;7.078;2023-03-04T04:02:10;25.80;;;15.23;;
11100;SDS011;5604;50.722;7.078;2023-03-04T04:04:38;33.17;;;15.90;;
11100;SDS011;5604;50.722;7.078;2023-03-04T04:07:06;38.03;;;16.23;;
11100;SDS011;5604;50.722;7.078;2023-03-04T04:09:34;34.43;;;15.87;;
11100;SDS011;5604;50.722;7.078;2023-03-04T04:12:05;29.23;;;15.30;;
11100;SDS011;5604;50.722;7.078;2023-03-04T04:14:33;33.17;;;15.50;;
11100;SDS011;5604;50.722;7.078;2023-03-04T04:17:02;29.53;;;15.63;;
11100;SDS011;5604;50.722;7.078;2023-03-04T04:19:31;31.87;;;15.57;;
11100;SDS011;5604;50.722;7.078;2023-03-04T04:21:59;33.20;;;14.93;;
11100;SDS011;5604;50.722;7.078;2023-03-04T04:24:27;30.33;;;14.70;;
11100;SDS011;5604;50.722;7.078;2023-03-04T04:26:55;29.67;;;15.57;;
11100;SDS011;5604;50.722;7.078;2023-03-04T04:29:25;27.17;;;14.67;;
11100;SDS011;5604;50.722;7.078;2023-03-04T04:31:54;28.50;;;14.13;;
11100;SDS011;5604;50.722;7.078;2023-03-04T04:34:23;27.47;;;14.67;;
11100;SDS011;5604;50.722;7.078;2023-03-04T04:36:53;28.80;;;14.57;;
11100;SDS011;5604;50.722;7.078;2023-03-04T04:39:21;34.40;;;15.00;;
11100;SDS011;5604;50.722;7.078;2023-03-04T04:41:49;24.67;;;14.20;;
11100;SDS011;5604;50.722;7.078;2023-03-04T04:44:17;31.53;;;15.03;;
11100;SDS011;5604;50.722;7.078;2023-03-04T04:46:45;32.30;;;14.67;;
11100;SDS011;5604;50.722;7.078;2023-03-04T04:49:15;29.97;;;14.07;;
11100;SDS011;5604;50.722;7.078;2023-03-04T04:51:43;27.53;;;13.97;;
11100;SDS011;5604;50.722;7.078;2023-03-04T04:54:15;28.00;;;15.13;;
11100;SDS011;5604;50.722;7.078;2023-03-04T04:56:45;28.77;;;13.93;;
11100;SDS011;5604;50.722;7.078;2023-03-04T04:59:13;29.87;;;14.93;;
11100;SDS011;5604;50.722;7.078;2023-03-04T05:01:44;33.73;;;15.07;;
11100;SDS011;5604;50.722;7.078;2023-03-04T05:04:13;28.17;;;14.73;;
11100;SDS011;5604;50.722;7.078;2023-03-04T05:06:41;30.20;;;14.30;;
11100;SDS011;5604;50.722;7.078;2023-03-04T05:09:10;28.17;;;13.77;;
11100;SDS011;5604;50.722;7.078;2023-03-04T05:11:40;25.83;;;13.33;;
11100;SDS011;5604;50.722;7.078;2023-03-04T05:14:08;28.67;;;13.33;;
11100;SDS011;5604;50.722;7.078;2023-03-04T05:16:36;28.60;;;12.93;;
11100;SDS011;5604;50.722;7.078;2023-03-04T05:19:04;27.63;;;13.10;;
11100;SDS011;5604;50.722;7.078;2023-03-04T05:21:32;25.30;;;12.73;;
11100;SDS011;5604;50.722;7.078;2023-03-04T05:24:01;24.27;;;13.20;;
11100;SDS011;5604;50.722;7.078;2023-03-04T05:26:29;30.77;;;13.87;;
11100;SDS011;5604;50.722;7.078;2023-03-04T05:28:59;29.20;;;13.93;;
11100;SDS011;5604;50.722;7.078;2023-03-04T05:31:27;26.27;;;13.67;;
11100;SDS011;5604;50.722;7.078;2023-03-04T05:33:56;27.43;;;14.13;;
11100;SDS011;5604;50.722;7.078;2023-03-04T05:36:24;26.07;;;13.10;;
11100;SDS011;5604;50.722;7.078;2023-03-04T05:38:52;24.70;;;12.63;;
11100;SDS011;5604;50.722;7.078;2023-03-04T05:41:20;23.17;;;12.10;;
11100;SDS011;5604;50.722;7.078;2023-03-04T05:43:48;25.40;;;12.67;;
11100;SDS011;5604;50.722;7.078;2023-03-04T05:46:20;25.53;;;12.27;;
11100;SDS011;5604;50.722;7.078;2023-03-04T05:48:56;28.83;;;12.60;;
11100;SDS011;5604;50.722;7.078;2023-03-04T05:51:29;24.33;;;12.67;;
11100;SDS011;5604;50.722;7.078;2023-03-04T05:53:57;30.27;;;13.07;;
11100;SDS011;5604;50.722;7.078;2023-03-04T05:56:25;21.87;;;12.43;;
11100;SDS011;5604;50.722;7.078;2023-03-04T05:58:55;29.80;;;13.13;;
11100;SDS011;5604;50.722;7.078;2023-03-04T06:01:25;28.37;;;13.33;;
11100;SDS011;5604;50.722;7.078;2023-03-04T06:03:53;29.57;;;13.33;;
11100;SDS011;5604;50.722;7.078;2023-03-04T06:06:22;27.87;;;15.00;;
11100;SDS011;5604;50.722;7.078;2023-03-04T06:08:52;29.63;;;14.43;;
11100;SDS011;5604;50.722;7.078;2023-03-04T06:11:20;26.47;;;14.20;;
11100;SDS011;5604;50.722;7.078;2023-03-04T06:13:50;25.17;;;13.87;;
11100;SDS011;5604;50.722;7.078;2023-03-04T06:16:18;31.73;;;13.47;;
11100;SDS011;5604;50.722;7.078;2023-03-04T06:18:49;28.17;;;13.63;;
11100;SDS011;5604;50.722;7.078;2023-03-04T06:21:18;28.27;;;13.23;;
11100;SDS011;5604;50.722;7.078;2023-03-04T06:23:46;24.50;;;11.90;;
11100;SDS011;5604;50.722;7.078;2023-03-04T06:26:14;22.70;;;11.63;;
11100;SDS011;5604;50.722;7.078;2023-03-04T06:28:42;28.97;;;12.57;;
11100;SDS011;5604;50.722;7.078;2023-03-04T06:31:12;28.17;;;12.23;;
11100;SDS011;5604;50.722;7.078;2023-03-04T06:33:43;24.73;;;11.73;;
11100;SDS011;5604;50.722;7.078;2023-03-04T06:36:13;24.73;;;11.40;;
11100;SDS011;5604;50.722;7.078;2023-03-04T06:38:41;27.47;;;12.83;;
11100;SDS011;5604;50.722;7.078;2023-03-04T06:41:09;22.63;;;11.10;;
11100;SDS011;5604;50.722;7.078;2023-03-04T06:43:38;23.00;;;10.80;;
11100;SDS011;5604;50.722;7.078;2023-03-04T06:46:13;21.13;;;11.20;;
11100;SDS011;5604;50.722;7.078;2023-03-04T06:48:41;25.63;;;11.33;;
11100;SDS011;5604;50.722;7.078;2023-03-04T06:51:09;21.07;;;9.87;;
11100;SDS011;5604;50.722;7.078;2023-03-04T06:53:39;26.03;;;10.20;;
11100;SDS011;5604;50.722;7.078;2023-03-04T06:56:08;23.40;;;10.43;;
11100;SDS011;5604;50.722;7.078;2023-03-04T06:58:38;20.17;;;10.23;;
11100;SDS011;5604;50.722;7.078;2023-03-04T07:01:11;27.10;;;10.20;;
11100;SDS011;5604;50.722;7.078;2023-03-04T07:03:42;24.20;;;10.60;;
11100;SDS011;5604;50.722;7.078;2023-03-04T07:06:12;23.00;;;9.00;;
11100;SDS011;5604;50.722;7.078;2023-03-04T07:08:43;18.37;;;8.90;;
11100;SDS011;5604;50.722;7.078;2023-03-04T07:11:14;20.23;;;9.10;;
11100;SDS011;5604;50.722;7.078;2023-03-04T07:13:42;15.60;;;8.00;;
11100;SDS011;5604;50.722;7.078;2023-03-04T07:16:13;21.57;;;9.27;;
11100;SDS011;5604;50.722;7.078;2023-03-04T07:18:43;20.40;;;8.57;;
11100;SDS011;5604;50.722;7.078;2023-03-04T07:21:11;20.73;;;9.43;;
11100;SDS011;5604;50.722;7.078;2023-03-04T07:23:45;16.83;;;7.37;;
11100;SDS011;5604;50.722;7.078;2023-03-04T07:26:13;16.00;;;7.97;;
11100;SDS011;5604;50.722;7.078;2023-03-04T07:28:41;18.90;;;9.10;;
11100;SDS011;5604;50.722;7.078;2023-03-04T07:31:10;17.13;;;7.07;;
11100;SDS011;5604;50.722;7.078;2023-03-04T07:33:40;18.70;;;8.00;;
11100;SDS011;5604;50.722;7.078;2023-03-04T07:36:08;14.77;;;7.67;;
11100;SDS011;5604;50.722;7.078;2023-03-04T07:38:36;17.70;;;7.13;;
11100;SDS011;5604;50.722;7.078;2023-03-04T07:41:06;13.30;;;7.70;;
11100;SDS011;5604;50.722;7.078;2023-03-04T07:43:34;17.40;;;6.83;;
11100;SDS011;5604;50.722;7.078;2023-03-04T07:46:02;14.47;;;7.53;;
11100;SDS011;5604;50.722;7.078;2023-03-04T07:48:30;13.80;;;6.83;;
11100;SDS011;5604;50.722;7.078;2023-03-04T07:51:05;14.57;;;5.87;;
11100;SDS011;5604;50.722;7.078;2023-03-04T07:53:38;12.03;;;6.40;;
11100;SDS011;5604;50.722;7.078;2023-03-04T07:56:14;13.23;;;6.23;;
11100;SDS011;5604;50.722;7.078;2023-03-04T07:58:43;11.10;;;5.60;;
11100;SDS011;5604;50.722;7.078;2023-03-04T08:01:13;17.97;;;6.73;;
11100;SDS011;5604;50.722;7.078;2023-03-04T08:03:42;15.17;;;7.20;;
11100;SDS011;5604;50.722;7.078;2023-03-04T08:06:11;12.07;;;7.27;;
11100;SDS011;5604;50.722;7.078;2023-03-04T08:08:40;19.80;;;8.17;;
11100;SDS011;5604;50.722;7.078;2023-03-04T08:11:10;18.47;;;8.20;;
11100;SDS011;5604;50.722;7.078;2023-03-04T08:13:41;21.10;;;7.53;;
11100;SDS011;5604;50.722;7.078;2023-03-04T08:16:10;16.50;;;7.63;;
11100;SDS011;5604;50.722;7.078;2023-03-04T08:18:41;14.53;;;6.37;;
11100;SDS011;5604;50.722;7.078;2023-03-04T08:21:10;13.27;;;6.23;;
11100;SDS011;5604;50.722;7.078;2023-03-04T08:23:38;14.07;;;6.00;;
11100;SDS011;5604;50.722;7.078;2023-03-04T08:26:08;11.67;;;5.57;;
11100;SDS011;5604;50.722;7.078;2023-03-04T08:28:37;15.83;;;5.77;;
11100;SDS011;5604;50.722;7.078;2023-03-04T08:31:06;19.43;;;6.33;;
11100;SDS011;5604;50.722;7.078;2023-03-04T08:33:35;12.57;;;5.10;;
11100;SDS011;5604;50.722;7.078;2023-03-04T08:36:03;9.60;;;5.50;;
11100;SDS011;5604;50.722;7.078;2023-03-04T08:38:31;12.37;;;5.00;;
11100;SDS011;5604;50.722;7.078;2023-03-04T08:40:59;12.37;;;5.30;;
11100;SDS011;5604;50.722;7.078;2023-03-04T08:43:28;12.73;;;5.00;;
11100;SDS011;5604;50.722;7.078;2023-03-04T08:45:57;14.23;;;5.63;;
11100;SDS011;5604;50.722;7.078;2023-03-04T08:48:26;12.40;;;4.80;;
11100;SDS011;5604;50.722;7.078;2023-03-04T08:50:54;13.10;;;5.20;;
11100;SDS011;5604;50.722;7.078;2023-03-04T08:53:23;11.30;;;5.07;;
11100;SDS011;5604;50.722;7.078;2023-03-04T08:55:51;7.60;;;4.67;;
11100;SDS011;5604;50.722;7.078;2023-03-04T08:58:19;12.97;;;5.10;;
11100;SDS011;5604;50.722;7.078;2023-03-04T09:00:48;15.50;;;5.20;;
11100;SDS011;5604;50.722;7.078;2023-03-04T09:03:17;11.87;;;4.70;;
11100;SDS011;5604;50.722;7.078;2023-03-04T09:05:47;15.93;;;5.60;;
11100;SDS011;5604;50.722;7.078;2023-03-04T09:08:16;16.97;;;6.50;;
11100;SDS011;5604;50.722;7.078;2023-03-04T09:10:44;13.37;;;6.17;;
11100;SDS011;5604;50.722;7.078;2023-03-04T09:13:13;20.43;;;6.73;;
11100;SDS011;5604;50.722;7.078;2023-03-04T09:15:42;13.40;;;6.40;;
11100;SDS011;5604;50.722;7.078;2023-03-04T09:18:11;19.70;;;6.83;;
11100;SDS011;5604;50.722;7.078;2023-03-04T09:20:40;12.77;;;5.60;;
11100;SDS011;5604;50.722;7.078;2023-03-04T09:23:09;15.00;;;5.63;;
11100;SDS011;5604;50.722;7.078;2023-03-04T09:25:38;9.87;;;5.27;;
11100;SDS011;5604;50.722;7.078;2023-03-04T09:28:06;12.00;;;5.20;;
11100;SDS011;5604;50.722;7.078;2023-03-04T09:30:34;12.50;;;4.60;;
11100;SDS011;5604;50.722;7.078;2023-03-04T09:33:02;17.73;;;5.77;;
11100;SDS011;5604;50.722;7.078;2023-03-04T09:35:30;10.80;;;4.67;;
11100;SDS011;5604;50.722;7.078;2023-03-04T09:37:59;16.40;;;5.03;;
11100;SDS011;5604;50.722;7.078;2023-03-04T09:40:31;11.63;;;5.23;;
11100;SDS011;5604;50.722;7.078;2023-03-04T09:43:38;12.80;;;5.90;;
11100;SDS011;5604;50.722;7.078;2023-03-04T09:46:12;13.93;;;5.57;;
11100;SDS011;5604;50.722;7.078;2023-03-04T09:48:43;14.03;;;5.47;;
11100;SDS011;5604;50.722;7.078;2023-03-04T09:51:19;10.90;;;5.80;;
11100;SDS011;5604;50.722;7.078;2023-03-04T09:53:53;10.57;;;5.77;;
11100;SDS011;5604;50.722;7.078;2023-03-04T09:56:29;17.47;;;5.70;;
11100;SDS011;5604;50.722;7.078;2023-03-04T09:59:01;13.57;;;4.77;;
11100;SDS011;5604;50.722;7.078;2023-03-04T10:01:33;11.63;;;4.37;;
11100;SDS011;5604;50.722;7.078;2023-03-04T10:04:07;9.67;;;4.73;;
11100;SDS011;5604;50.722;7.078;2023-03-04T10:06:40;14.57;;;4.70;;
11100;SDS011;5604;50.722;7.078;2023-03-04T10:09:10;8.37;;;4.40;;
11100;SDS011;5604;50.722;7.078;2023-03-04T10:11:43;8.80;;;4.70;;
11100;SDS011;5604;50.722;7.078;2023-03-04T10:14:20;10.00;;;4.13;;
11100;SDS011;5604;50.722;7.078;2023-03-04T10:16:55;9.47;;;4.27;;
11100;SDS011;5604;50.722;7.078;2023-03-04T10:19:27;13.67;;;4.77;;
11100;SDS011;5604;50.722;7.078;2023-03-04T10:21:59;14.60;;;4.87;;
11100;SDS011;5604;50.722;7.078;2023-03-04T10:24:28;6.23;;;3.47;;
11100;SDS011;5604;50.722;7.078;2023-03-04T10:26:59;7.60;;;3.40;;
11100;SDS011;5604;50.722;7.078;2023-03-04T10:29:30;7.47;;;4.23;;
11100;SDS011;5604;50.722;7.078;2023-03-04T10:31:59;7.63;;;3.50;;
11100;SDS011;5604;50.722;7.078;2023-03-04T10:34:28;6.67;;;3.57;;
11100;SDS011;5604;50.722;7.078;2023-03-04T10:36:57;9.43;;;3.60;;
11100;SDS011;5604;50.722;7.078;2023-03-04T10:39:28;6.93;;;4.37;;
11100;SDS011;5604;50.722;7.078;2023-03-04T10:42:02;6.73;;;4.20;;
11100;SDS011;5604;50.722;7.078;2023-03-04T10:44:32;6.70;;;3.90;;
11100;SDS011;5604;50.722;7.078;2023-03-04T10:47:03;4.77;;;3.27;;
11100;SDS011;5604;50.722;7.078;2023-03-04T10:49:38;7.07;;;3.13;;
11100;SDS011;5604;50.722;7.078;2023-03-04T10:52:18;5.17;;;3.10;;
11100;SDS011;5604;50.722;7.078;2023-03-04T10:54:54;11.37;;;3.40;;
11100;SDS011;5604;50.722;7.078;2023-03-04T10:57:25;8.00;;;4.10;;
11100;SDS011;5604;50.722;7.078;2023-03-04T10:59:59;6.67;;;4.27;;
11100;SDS011;5604;50.722;7.078;2023-03-04T11:02:29;8.50;;;3.83;;
11100;SDS011;5604;50.722;7.078;2023-03-04T11:05:10;7.03;;;4.70;;
11100;SDS011;5604;50.722;7.078;2023-03-04T11:07:44;7.63;;;4.27;;
11100;SDS011;5604;50.722;7.078;2023-03-04T11:10:22;9.83;;;5.10;;
11100;SDS011;5604;50.722;7.078;2023-03-04T11:12:54;6.43;;;4.37;;
11100;SDS011;5604;50.722;7.078;2023-03-04T11:15:25;9.37;;;4.60;;
11100;SDS011;5604;50.722;7.078;2023-03-04T11:17:54;8.93;;;4.37;;
11100;SDS011;5604;50.722;7.078;2023-03-04T11:20:27;8.57;;;5.03;;
11100;SDS011;5604;50.722;7.078;2023-03-04T11:23:00;7.70;;;6.07;;
11100;SDS011;5604;50.722;7.078;2023-03-04T11:25:32;10.33;;;6.23;;
11100;SDS011;5604;50.722;7.078;2023-03-04T11:28:03;8.67;;;6.33;;
11100;SDS011;5604;50.722;7.078;2023-03-04T11:30:40;11.30;;;6.50;;
11100;SDS011;5604;50.722;7.078;2023-03-04T11:33:19;12.93;;;6.93;;
11100;SDS011;5604;50.722;7.078;2023-03-04T11:35:52;11.03;;;6.40;;
11100;SDS011;5604;50.722;7.078;2023-03-04T11:38:25;9.30;;;5.30;;
11100;SDS011;5604;50.722;7.078;2023-03-04T11:40:56;8.47;;;4.90;;
11100;SDS011;5604;50.722;7.078;2023-03-04T11:43:29;10.17;;;5.73;;
11100;SDS011;5604;50.722;7.078;2023-03-04T11:46:07;8.00;;;5.07;;
11100;SDS011;5604;50.722;7.078;2023-03-04T11:48:52;7.47;;;5.10;;
11100;SDS011;5604;50.722;7.078;2023-03-04T11:51:31;7.67;;;4.97;;
11100;SDS011;5604;50.722;7.078;2023-03-04T11:54:08;10.87;;;5.63;;
11100;SDS011;5604;50.722;7.078;2023-03-04T11:56:43;8.27;;;5.20;;
11100;SDS011;5604;50.722;7.078;2023-03-04T11:59:18;11.93;;;5.37;;
11100;SDS011;5604;50.722;7.078;2023-03-04T12:01:54;11.23;;;6.87;;
11100;SDS011;5604;50.722;7.078;2023-03-04T12:04:32;9.20;;;6.27;;
11100;SDS011;5604;50.722;7.078;2023-03-04T12:09:57;9.53;;;5.90;;
11100;SDS011;5604;50.722;7.078;2023-03-04T12:12:35;8.70;;;6.23;;
11100;SDS011;5604;50.722;7.078;2023-03-04T12:15:16;11.47;;;7.00;;
11100;SDS011;5604;50.722;7.078;2023-03-04T12:17:55;10.03;;;6.97;;
11100;SDS011;5604;50.722;7.078;2023-03-04T12:20:39;7.67;;;5.83;;
11100;SDS011;5604;50.722;7.078;2023-03-04T12:23:16;11.03;;;5.83;;
11100;SDS011;5604;50.722;7.078;2023-03-04T12:25:52;7.57;;;4.97;;
11100;SDS011;5604;50.722;7.078;2023-03-04T12:28:29;10.07;;;4.60;;
11100;SDS011;5604;50.722;7.078;2023-03-04T12:31:10;6.77;;;4.53;;
11100;SDS011;5604;50.722;7.078;2023-03-04T12:33:49;8.27;;;4.63;;
11100;SDS011;5604;50.722;7.078;2023-03-04T12:36:24;6.70;;;4.00;;
11100;SDS011;5604;50.722;7.078;2023-03-04T12:38:58;8.53;;;4.63;;
11100;SDS011;5604;50.722;7.078;2023-03-04T12:41:38;7.57;;;4.17;;
11100;SDS011;5604;50.722;7.078;2023-03-04T12:44:12;5.90;;;4.57;;
11100;SDS011;5604;50.722;7.078;2023-03-04T12:46:48;8.70;;;5.00;;
11100;SDS011;5604;50.722;7.078;2023-03-04T12:52:14;8.83;;;4.93;;
11100;SDS011;5604;50.722;7.078;2023-03-04T12:54:44;5.93;;;4.73;;
11100;SDS011;5604;50.722;7.078;2023-03-04T12:57:15;10.03;;;4.97;;
11100;SDS011;5604;50.722;7.078;2023-03-04T12:59:47;7.40;;;4.90;;
11100;SDS011;5604;50.722;7.078;2023-03-04T13:02:28;7.80;;;4.80;;
11100;SDS011;5604;50.722;7.078;2023-03-04T13:05:06;7.40;;;4.83;;
11100;SDS011;5604;50.722;7.078;2023-03-04T13:07:43;8.77;;;5.27;;
11100;SDS011;5604;50.722;7.078;2023-03-04T13:10:19;8.37;;;5.30;;
11100;SDS011;5604;50.722;7.078;2023-03-04T13:12:52;6.77;;;4.40;;
11100;SDS011;5604;50.722;7.078;2023-03-04T13:15:35;7.77;;;4.80;;
11100;SDS011;5604;50.722;7.078;2023-03-04T13:21:17;3.90;;;3.00;;
11100;SDS011;5604;50.722;7.078;2023-03-04T13:23:49;4.93;;;2.50;;
11100;SDS011;5604;50.722;7.078;2023-03-04T13:26:24;6.33;;;3.20;;
11100;SDS011;5604;50.722;7.078;2023-03-04T13:29:09;5.73;;;2.70;;
11100;SDS011;5604;50.722;7.078;2023-03-04T13:31:56;5.50;;;3.13;;
11100;SDS011;5604;50.722;7.078;2023-03-04T13:37:30;8.67;;;4.77;;
11100;SDS011;5604;50.722;7.078;2023-03-04T13:42:53;9.30;;;4.97;;
11100;SDS011;5604;50.722;7.078;2023-03-04T13:45:29;9.40;;;3.93;;
11100;SDS011;5604;50.722;7.078;2023-03-04T13:48:00;5.67;;;3.30;;
11100;SDS011;5604;50.722;7.078;2023-03-04T13:50:35;10.10;;;4.27;;
11100;SDS011;5604;50.722;7.078;2023-03-04T13:56:11;5.13;;;3.10;;
11100;SDS011;5604;50.722;7.078;2023-03-04T13:59:18;9.13;;;3.43;;
11100;SDS011;5604;50.722;7.078;2023-03-04T14:01:50;4.20;;;3.40;;
11100;SDS011;5604;50.722;7.078;2023-03-04T14:04:28;9.07;;;4.50;;
11100;SDS011;5604;50.722;7.078;2023-03-04T14:07:02;6.87;;;3.90;;
11100;SDS011;5604;50.722;7.078;2023-03-04T14:09:33;5.07;;;3.10;;
11100;SDS011;5604;50.722;7.078;2023-03-04T14:12:13;15.13;;;4.47;;
11100;SDS011;5604;50.722;7.078;2023-03-04T14:14:43;4.97;;;3.47;;
11100;SDS011;5604;50.722;7.078;2023-03-04T14:17:16;4.50;;;2.70;;
11100;SDS011;5604;50.722;7.078;2023-03-04T14:19:50;3.87;;;2.87;;
11100;SDS011;5604;50.722;7.078;2023-03-04T14:22:22;4.50;;;3.23;;
11100;SDS011;5604;50.722;7.078;2023-03-04T14:24:57;6.67;;;3.83;;
11100;SDS011;5604;50.722;7.078;2023-03-04T14:27:28;6.50;;;3.10;;
11100;SDS011;5604;50.722;7.078;2023-03-04T14:29:59;6.43;;;2.97;;
11100;SDS011;5604;50.722;7.078;2023-03-04T14:32:29;8.13;;;3.27;;
11100;SDS011;5604;50.722;7.078;2023-03-04T14:35:00;6.43;;;3.30;;
11100;SDS011;5604;50.722;7.078;2023-03-04T14:37:36;5.00;;;3.00;;
11100;SDS011;5604;50.722;7.078;2023-03-04T14:40:24;7.33;;;2.93;;
11100;SDS011;5604;50.722;7.078;2023-03-04T14:43:02;8.17;;;3.87;;
11100;SDS011;5604;50.722;7.078;2023-03-04T14:45:51;4.87;;;2.77;;
11100;SDS011;5604;50.722;7.078;2023-03-04T14:48:21;4.90;;;2.90;;
11100;SDS011;5604;50.722;7.078;2023-03-04T14:50:54;5.50;;;2.57;;
11100;SDS011;5604;50.722;7.078;2023-03-04T14:53:29;4.63;;;2.70;;
11100;SDS011;5604;50.722;7.078;2023-03-04T14:55:58;9.60;;;2.90;;
11100;SDS011;5604;50.722;7.078;2023-03-04T14:58:31;3.43;;;2.53;;
11100;SDS011;5604;50.722;7.078;2023-03-04T15:01:04;4.07;;;2.77;;
11100;SDS011;5604;50.722;7.078;2023-03-04T15:03:34;5.53;;;2.93;;
11100;SDS011;5604;50.722;7.078;2023-03-04T15:06:06;6.60;;;2.87;;
11100;SDS011;5604;50.722;7.078;2023-03-04T15:08:46;6.77;;;3.20;;
11100;SDS011;5604;50.722;7.078;2023-03-04T15:11:22;3.10;;;2.70;;
11100;SDS011;5604;50.722;7.078;2023-03-04T15:13:53;3.80;;;2.47;;
11100;SDS011;5604;50.722;7.078;2023-03-04T15:16:24;5.13;;;2.80;;
11100;SDS011;5604;50.722;7.078;2023-03-04T15:18:55;4.63;;;2.83;;
11100;SDS011;5604;50.722;7.078;2023-03-04T15:21:31;5.37;;;2.70;;
11100;SDS011;5604;50.722;7.078;2023-03-04T15:24:04;7.53;;;3.10;;
11100;SDS011;5604;50.722;7.078;2023-03-04T15:26:40;5.57;;;2.60;;